createdAt,value
2022-09-28T00:01:17.804Z,23.05
2022-09-28T00:03:46.453Z,8.40
2022-09-28T00:06:15.989Z,7.20
2022-09-28T00:08:42.784Z,7.43
2022-09-28T00:11:13.758Z,8.45
2022-09-28T00:13:41.491Z,10.18
2022-09-28T00:16:14.140Z,7.32
2022-09-28T00:18:41.666Z,8.55
2022-09-28T00:21:15.406Z,7.65
2022-09-28T00:24:01.475Z,8.73
2022-09-28T00:26:30.380Z,9.95
2022-09-28T00:29:00.119Z,7.95
2022-09-28T00:31:35.884Z,9.82
2022-09-28T00:34:02.752Z,7.97
2022-09-28T00:36:31.050Z,11.68
2022-09-28T00:38:58.887Z,6.43
2022-09-28T00:41:27.823Z,8.52
2022-09-28T00:44:15.227Z,8.10
2022-09-28T00:46:41.978Z,9.55
2022-09-28T00:49:15.778Z,6.68
2022-09-28T00:51:44.567Z,6.63
2022-09-28T00:54:12.818Z,6.22
2022-09-28T00:56:45.926Z,6.90
2022-09-28T00:59:13.003Z,9.00
2022-09-28T01:01:39.621Z,6.40
2022-09-28T01:04:06.416Z,11.43
2022-09-28T01:06:35.803Z,6.85
2022-09-28T01:09:06.300Z,15.07
2022-09-28T01:11:35.272Z,6.10
2022-09-28T01:14:02.377Z,5.57
2022-09-28T01:16:38.131Z,7.57
2022-09-28T01:19:10.783Z,11.23
2022-09-28T01:21:51.700Z,7.78
2022-09-28T01:24:38.735Z,6.57
2022-09-28T01:27:11.326Z,11.80
2022-09-28T01:29:46.092Z,5.65
2022-09-28T01:32:38.068Z,7.53
2022-09-28T01:35:15.002Z,6.30
2022-09-28T01:37:52.725Z,7.03
2022-09-28T01:40:23.053Z,10.90
2022-09-28T01:42:55.025Z,7.18
2022-09-28T01:45:31.264Z,8.23
2022-09-28T01:48:02.433Z,5.72
2022-09-28T01:50:33.352Z,5.75
2022-09-28T01:53:21.599Z,10.60
2022-09-28T01:55:54.171Z,6.03
2022-09-28T01:58:30.285Z,6.60
2022-09-28T02:01:06.132Z,6.20
2022-09-28T02:03:42.971Z,7.18
2022-09-28T02:06:16.668Z,10.25
2022-09-28T02:08:56.570Z,5.82
2022-09-28T02:13:58.923Z,6.07
2022-09-28T02:16:28.500Z,7.45
2022-09-28T02:18:55.796Z,6.45
2022-09-28T02:21:42.942Z,5.70
2022-09-28T02:24:27.273Z,9.05
2022-09-28T02:26:57.718Z,8.00
2022-09-28T02:29:24.553Z,8.20
2022-09-28T02:31:52.221Z,8.02
2022-09-28T02:34:19.005Z,6.85
2022-09-28T02:36:46.946Z,7.53
2022-09-28T02:39:19.045Z,6.30
2022-09-28T02:41:50.544Z,5.88
2022-09-28T02:44:17.086Z,6.03
2022-09-28T02:47:05.234Z,6.95
2022-09-28T02:49:49.888Z,7.30
2022-09-28T02:52:28.563Z,6.07
2022-09-28T02:55:10.197Z,6.10
2022-09-28T02:57:59.888Z,8.07
2022-09-28T03:00:28.011Z,7.38
2022-09-28T03:03:15.892Z,8.68
2022-09-28T03:06:03.360Z,5.78
2022-09-28T03:08:37.994Z,8.23
2022-09-28T03:11:10.356Z,6.35
2022-09-28T03:13:37.856Z,14.25
2022-09-28T03:16:22.794Z,15.35
2022-09-28T03:18:49.461Z,17.17
2022-09-28T03:21:16.299Z,18.33
2022-09-28T03:23:43.355Z,10.98
2022-09-28T03:26:13.675Z,6.82
2022-09-28T03:28:40.933Z,6.75
2022-09-28T03:31:07.618Z,16.38
2022-09-28T03:33:34.276Z,8.20
2022-09-28T03:36:01.036Z,9.60
2022-09-28T03:38:27.723Z,7.82
2022-09-28T03:40:55.028Z,8.35
2022-09-28T03:43:22.226Z,8.73
2022-09-28T03:45:53.769Z,8.32
2022-09-28T03:48:32.389Z,12.45
2022-09-28T03:51:02.415Z,7.63
2022-09-28T03:53:29.897Z,10.07
2022-09-28T03:56:01.879Z,8.52
2022-09-28T03:58:28.567Z,10.75
2022-09-28T04:00:55.226Z,9.73
2022-09-28T04:03:21.956Z,12.05
2022-09-28T04:05:50.716Z,7.30
2022-09-28T04:08:17.767Z,7.32
2022-09-28T04:10:44.650Z,8.48
2022-09-28T04:13:11.722Z,9.32
2022-09-28T04:15:38.613Z,7.63
2022-09-28T04:18:13.653Z,7.82
2022-09-28T04:20:41.527Z,8.65
2022-09-28T04:23:08.163Z,9.48
2022-09-28T04:25:34.831Z,14.65
2022-09-28T04:28:19.821Z,10.52
2022-09-28T04:30:47.855Z,10.88
2022-09-28T04:33:14.481Z,13.60
2022-09-28T04:35:41.121Z,8.50
2022-09-28T04:38:07.804Z,10.48
2022-09-28T04:40:34.415Z,8.80
2022-09-28T04:43:01.055Z,10.50
2022-09-28T04:45:28.620Z,9.13
2022-09-28T04:47:55.288Z,12.00
2022-09-28T04:50:22.021Z,9.23
2022-09-28T04:52:48.623Z,9.15
2022-09-28T04:55:16.910Z,9.60
2022-09-28T04:57:43.553Z,10.68
2022-09-28T05:00:12.196Z,12.00
2022-09-28T05:02:39.285Z,12.10
2022-09-28T05:05:06.404Z,15.90
2022-09-28T05:07:33.029Z,14.80
2022-09-28T05:10:01.578Z,15.50
2022-09-28T05:12:28.168Z,13.45
2022-09-28T05:14:54.784Z,13.13
2022-09-28T05:17:21.379Z,12.95
2022-09-28T05:19:47.997Z,13.75
2022-09-28T05:22:15.148Z,11.23
2022-09-28T05:24:41.803Z,12.48
2022-09-28T05:27:08.727Z,12.35
2022-09-28T05:29:35.433Z,14.38
2022-09-28T05:32:02.383Z,14.93
2022-09-28T05:34:29.358Z,11.57
2022-09-28T05:36:56.174Z,14.52
2022-09-28T05:39:22.793Z,18.40
2022-09-28T05:41:49.508Z,16.08
2022-09-28T05:44:16.152Z,17.77
2022-09-28T05:46:42.884Z,14.95
2022-09-28T05:49:09.612Z,14.20
2022-09-28T05:51:36.254Z,15.52
2022-09-28T05:54:05.884Z,17.65
2022-09-28T05:56:33.138Z,17.48
2022-09-28T05:58:59.812Z,21.58
2022-09-28T06:01:26.635Z,16.48
2022-09-28T06:03:53.319Z,14.50
2022-09-28T06:06:19.981Z,15.40
2022-09-28T06:08:48.465Z,17.70
2022-09-28T06:11:15.150Z,12.95
2022-09-28T06:13:41.884Z,11.50
2022-09-28T06:16:08.644Z,12.60
2022-09-28T06:18:35.463Z,18.58
2022-09-28T06:21:02.855Z,12.35
2022-09-28T06:23:29.486Z,10.73
2022-09-28T06:25:56.106Z,12.15
2022-09-28T06:28:22.915Z,12.65
2022-09-28T06:30:49.538Z,11.40
2022-09-28T06:33:16.432Z,10.95
2022-09-28T06:35:43.327Z,12.90
2022-09-28T06:38:10.318Z,13.82
2022-09-28T06:40:37.616Z,14.15
2022-09-28T06:43:10.242Z,8.35
2022-09-28T06:45:38.421Z,10.13
2022-09-28T06:48:05.901Z,12.60
2022-09-28T06:50:37.439Z,10.45
2022-09-28T06:53:06.804Z,9.48
2022-09-28T06:55:34.499Z,11.95
2022-09-28T06:58:06.414Z,8.07
2022-09-28T07:00:35.571Z,10.32
2022-09-28T07:03:03.523Z,9.07
2022-09-28T07:05:30.850Z,9.27
2022-09-28T07:07:57.702Z,9.65
2022-09-28T07:10:28.897Z,13.00
2022-09-28T07:12:56.883Z,9.38
2022-09-28T07:15:24.633Z,14.65
2022-09-28T07:18:02.386Z,10.63
2022-09-28T07:20:31.299Z,11.07
2022-09-28T07:23:12.102Z,13.23
2022-09-28T07:25:47.843Z,8.70
2022-09-28T07:28:14.823Z,9.57
2022-09-28T07:30:42.308Z,13.05
2022-09-28T07:33:12.616Z,8.23
2022-09-28T07:35:39.321Z,10.20
2022-09-28T07:38:07.707Z,16.33
2022-09-28T07:40:54.710Z,10.23
2022-09-28T07:43:22.249Z,13.88
2022-09-28T07:45:50.949Z,7.57
2022-09-28T07:48:18.751Z,7.32
2022-09-28T07:50:54.032Z,4.60
2022-09-28T07:53:22.935Z,7.25
2022-09-28T07:56:02.007Z,4.83
2022-09-28T07:58:29.409Z,5.20
2022-09-28T08:00:56.033Z,4.63
2022-09-28T08:03:22.669Z,4.43
2022-09-28T08:05:49.855Z,7.05
2022-09-28T08:08:16.516Z,7.25
2022-09-28T08:10:47.005Z,5.45
2022-09-28T08:13:15.321Z,3.25
2022-09-28T08:15:42.632Z,5.45
2022-09-28T08:18:10.246Z,4.82
2022-09-28T08:20:55.640Z,8.80
2022-09-28T08:23:23.564Z,8.20
2022-09-28T08:25:54.061Z,3.67
2022-09-28T08:28:22.667Z,6.85
2022-09-28T08:30:50.341Z,4.15
2022-09-28T08:33:18.330Z,6.70
2022-09-28T08:35:45.985Z,10.13
2022-09-28T08:38:13.681Z,4.80
2022-09-28T08:40:58.071Z,7.60
2022-09-28T08:43:46.104Z,5.47
2022-09-28T08:46:15.005Z,13.18
2022-09-28T08:49:25.251Z,5.70
2022-09-28T08:52:17.965Z,5.95
2022-09-28T08:55:12.571Z,5.72
2022-09-28T08:57:51.483Z,2.85
2022-09-28T09:00:38.171Z,3.70
2022-09-28T09:03:12.777Z,3.60
2022-09-28T09:06:17.640Z,6.40
2022-09-28T09:08:51.697Z,5.15
2022-09-28T09:11:31.916Z,3.58
2022-09-28T09:14:27.856Z,5.43
2022-09-28T09:17:13.458Z,4.40
2022-09-28T09:20:01.786Z,2.58
2022-09-28T09:22:40.731Z,5.65
2022-09-28T09:25:21.539Z,2.73
2022-09-28T09:28:16.312Z,9.75
2022-09-28T09:31:13.711Z,2.22
2022-09-28T09:34:18.094Z,3.30
2022-09-28T09:37:02.845Z,2.58
2022-09-28T09:40:08.224Z,2.30
2022-09-28T09:42:40.737Z,9.40
2022-09-28T09:45:14.837Z,2.83
2022-09-28T09:47:47.293Z,3.92
2022-09-28T09:50:32.065Z,3.72
2022-09-28T09:53:42.210Z,9.07
2022-09-28T09:56:21.515Z,7.20
2022-09-28T09:58:59.872Z,5.20
2022-09-28T10:01:37.291Z,3.80
2022-09-28T10:04:08.777Z,2.55
2022-09-28T10:06:37.358Z,3.42
2022-09-28T10:09:13.796Z,3.47
2022-09-28T10:11:45.241Z,3.58
2022-09-28T10:14:25.293Z,4.18
2022-09-28T10:16:53.846Z,7.57
2022-09-28T10:19:27.590Z,2.58
2022-09-28T10:21:54.193Z,3.90
2022-09-28T10:24:31.512Z,3.47
2022-09-28T10:27:05.655Z,2.42
2022-09-28T10:29:43.275Z,6.20
2022-09-28T10:32:44.816Z,3.30
2022-09-28T10:35:24.517Z,5.32
2022-09-28T10:40:44.815Z,3.30
2022-09-28T10:43:33.527Z,3.83
2022-09-28T10:46:21.873Z,4.65
2022-09-28T10:49:12.382Z,3.03
2022-09-28T10:51:45.393Z,2.53
2022-09-28T10:54:18.181Z,3.97
2022-09-28T10:56:46.581Z,5.20
2022-09-28T10:59:31.618Z,3.03
2022-09-28T11:02:02.658Z,3.47
2022-09-28T11:04:41.530Z,12.23
2022-09-28T11:07:24.800Z,2.67
2022-09-28T11:09:53.290Z,3.50
2022-09-28T11:12:26.213Z,3.72
2022-09-28T11:15:01.127Z,2.80
2022-09-28T11:17:32.532Z,3.55
2022-09-28T11:20:01.850Z,5.20
2022-09-28T11:22:34.601Z,2.78
2022-09-28T11:25:16.328Z,3.55
2022-09-28T11:27:52.105Z,2.72
2022-09-28T11:30:34.439Z,3.35
2022-09-28T11:33:05.301Z,2.72
2022-09-28T11:36:06.378Z,5.63
2022-09-28T11:38:39.651Z,5.45
2022-09-28T11:41:12.288Z,2.75
2022-09-28T11:43:58.108Z,6.82
2022-09-28T11:46:43.716Z,2.63
2022-09-28T11:49:38.355Z,2.60
2022-09-28T11:52:31.908Z,5.60
2022-09-28T11:55:09.853Z,2.72
2022-09-28T11:57:40.869Z,4.78
2022-09-28T12:00:15.394Z,3.00
2022-09-28T12:02:49.811Z,6.18
2022-09-28T12:05:20.702Z,10.75
2022-09-28T12:07:54.551Z,5.25
2022-09-28T12:10:45.273Z,3.40
2022-09-28T12:13:16.967Z,2.88
2022-09-28T12:16:20.031Z,3.45
2022-09-28T12:18:52.034Z,3.67
2022-09-28T12:21:24.739Z,2.50
2022-09-28T12:24:05.191Z,3.35
2022-09-28T12:26:40.095Z,5.50
2022-09-28T12:29:22.856Z,3.10
2022-09-28T12:32:26.649Z,2.35
2022-09-28T12:34:53.320Z,1.85
2022-09-28T12:37:44.440Z,6.18
2022-09-28T12:40:29.853Z,2.50
2022-09-28T12:43:33.860Z,4.25
2022-09-28T12:46:38.946Z,3.33
2022-09-28T12:52:48.098Z,7.68
2022-09-28T12:55:27.607Z,4.75
2022-09-28T12:58:36.771Z,2.78
2022-09-28T13:01:31.895Z,2.08
2022-09-28T13:04:02.992Z,5.68
2022-09-28T13:06:32.580Z,8.05
2022-09-28T13:09:01.461Z,25.60
2022-09-28T13:11:54.727Z,13.18
2022-09-28T13:14:27.100Z,8.27
2022-09-28T13:17:12.360Z,26.17
2022-09-28T13:19:55.028Z,10.45
2022-09-28T13:22:44.378Z,8.05
2022-09-28T13:25:17.765Z,4.97
2022-09-28T13:28:05.613Z,6.68
2022-09-28T13:30:35.625Z,13.35
2022-09-28T13:33:05.954Z,4.05
2022-09-28T13:35:33.404Z,9.70
2022-09-28T13:38:18.261Z,11.18
2022-09-28T13:41:06.782Z,11.80
2022-09-28T13:43:36.624Z,6.53
2022-09-28T13:46:19.837Z,5.65
2022-09-28T13:49:05.313Z,3.08
2022-09-28T13:51:40.099Z,9.70
2022-09-28T13:54:37.059Z,8.52
2022-09-28T13:57:29.879Z,8.23
2022-09-28T14:00:02.870Z,8.15
2022-09-28T14:02:36.879Z,5.28
2022-09-28T14:05:47.449Z,7.38
2022-09-28T14:08:28.657Z,3.65
2022-09-28T14:10:57.239Z,5.03
2022-09-28T14:13:44.926Z,4.70
2022-09-28T14:16:17.907Z,4.82
2022-09-28T14:18:50.088Z,2.50
2022-09-28T14:21:31.761Z,5.00
2022-09-28T14:24:39.906Z,4.30
2022-09-28T14:27:40.539Z,6.07
2022-09-28T14:30:10.230Z,5.85
2022-09-28T14:35:18.481Z,5.20
2022-09-28T14:38:07.846Z,4.93
2022-09-28T14:41:10.061Z,8.02
2022-09-28T14:43:45.816Z,8.38
2022-09-28T14:46:14.497Z,6.80
2022-09-28T14:48:49.053Z,8.20
2022-09-28T14:51:25.093Z,5.05
2022-09-28T14:53:52.865Z,6.85
2022-09-28T14:56:19.763Z,5.50
2022-09-28T14:58:52.935Z,12.18
2022-09-28T15:01:22.227Z,8.80
2022-09-28T15:03:52.393Z,7.57
2022-09-28T15:06:22.966Z,6.43
2022-09-28T15:08:49.758Z,4.25
2022-09-28T15:11:21.742Z,8.13
2022-09-28T15:13:53.343Z,7.75
2022-09-28T15:16:24.127Z,6.97
2022-09-28T15:19:31.128Z,6.25
2022-09-28T15:21:57.804Z,14.63
2022-09-28T15:24:24.764Z,5.00
2022-09-28T15:26:52.025Z,6.13
2022-09-28T15:29:19.648Z,5.50
2022-09-28T15:31:47.557Z,8.10
2022-09-28T15:34:51.761Z,8.68
2022-09-28T15:37:23.042Z,8.50
2022-09-28T15:39:51.428Z,5.40
2022-09-28T15:42:18.721Z,8.00
2022-09-28T15:45:22.235Z,11.05
2022-09-28T15:47:48.965Z,10.48
2022-09-28T15:50:28.345Z,9.30
2022-09-28T15:53:01.204Z,8.68
2022-09-28T15:55:34.535Z,10.70
2022-09-28T15:58:08.844Z,7.93
2022-09-28T16:00:35.905Z,10.80
2022-09-28T16:03:29.147Z,7.45
2022-09-28T16:05:58.692Z,11.52
2022-09-28T16:08:42.769Z,11.77
2022-09-28T16:11:20.968Z,11.60
2022-09-28T16:13:56.504Z,11.20
2022-09-28T16:16:35.182Z,11.23
2022-09-28T16:19:02.813Z,10.45
2022-09-28T16:21:42.628Z,10.32
2022-09-28T16:26:47.020Z,16.92
2022-09-28T16:29:32.617Z,11.57
2022-09-28T16:32:24.922Z,11.20
2022-09-28T16:35:11.757Z,18.33
2022-09-28T16:37:42.758Z,17.55
2022-09-28T16:40:12.852Z,15.32
2022-09-28T16:42:43.441Z,16.58
2022-09-28T16:45:19.960Z,18.10
2022-09-28T16:47:47.961Z,15.13
2022-09-28T16:50:15.366Z,13.40
2022-09-28T16:53:00.516Z,18.15
2022-09-28T16:55:40.200Z,26.30
2022-09-28T16:58:08.227Z,53.10
2022-09-28T17:00:35.081Z,78.95
2022-09-28T17:03:02.250Z,73.40
2022-09-28T17:05:29.532Z,70.18
2022-09-28T17:08:04.094Z,59.85
2022-09-28T17:10:50.168Z,78.18
2022-09-28T17:13:35.968Z,64.63
2022-09-28T17:16:08.445Z,43.83
2022-09-28T17:18:39.137Z,36.28
2022-09-28T17:21:10.793Z,38.30
2022-09-28T17:23:37.424Z,43.28
2022-09-28T17:26:06.517Z,27.02
2022-09-28T17:28:36.562Z,27.67
2022-09-28T17:31:07.038Z,32.60
2022-09-28T17:33:33.672Z,26.52
2022-09-28T17:36:04.754Z,25.38
2022-09-28T17:38:31.993Z,26.90
2022-09-28T17:40:58.638Z,25.25
2022-09-28T17:43:25.312Z,18.95
2022-09-28T17:45:52.006Z,19.65
2022-09-28T17:48:24.365Z,16.90
2022-09-28T17:50:51.289Z,14.80
2022-09-28T17:53:18.242Z,19.42
2022-09-28T17:55:44.845Z,17.60
2022-09-28T17:58:19.068Z,16.20
2022-09-28T18:00:47.720Z,16.77
2022-09-28T18:03:17.432Z,16.23
2022-09-28T18:05:45.748Z,19.35
2022-09-28T18:08:15.679Z,15.07
2022-09-28T18:10:42.383Z,18.83
2022-09-28T18:13:09.860Z,14.02
2022-09-28T18:15:36.536Z,17.20
2022-09-28T18:18:03.416Z,16.30
2022-09-28T18:20:30.606Z,11.35
2022-09-28T18:22:57.814Z,19.10
2022-09-28T18:25:24.486Z,15.95
2022-09-28T18:27:54.539Z,21.95
2022-09-28T18:30:21.148Z,21.88
2022-09-28T18:32:47.765Z,19.60
2022-09-28T18:35:14.453Z,17.23
2022-09-28T18:37:41.215Z,19.38
2022-09-28T18:40:09.680Z,16.45
2022-09-28T18:42:36.480Z,19.23
2022-09-28T18:45:06.256Z,15.05
2022-09-28T18:49:59.831Z,14.10
2022-09-28T18:52:27.491Z,16.10
2022-09-28T18:54:54.188Z,13.10
2022-09-28T18:57:21.368Z,14.45
2022-09-28T18:59:48.223Z,14.85
2022-09-28T19:02:14.895Z,21.02
2022-09-28T19:04:41.625Z,29.02
2022-09-28T19:07:08.662Z,36.55
2022-09-28T19:09:35.395Z,18.88
2022-09-28T19:12:02.304Z,14.13
2022-09-28T19:14:28.891Z,14.70
2022-09-28T19:16:55.629Z,20.35
2022-09-28T19:19:22.491Z,16.73
2022-09-28T19:21:49.185Z,13.80
2022-09-28T19:24:18.251Z,21.27
2022-09-28T19:26:46.549Z,15.32
2022-09-28T19:29:13.989Z,13.10
2022-09-28T19:31:43.618Z,16.73
2022-09-28T19:34:13.483Z,11.82
2022-09-28T19:36:41.567Z,11.75
2022-09-28T19:39:08.437Z,12.20
2022-09-28T19:41:44.846Z,21.92
2022-09-28T19:44:36.428Z,13.98
2022-09-28T19:47:09.060Z,15.68
2022-09-28T19:49:40.683Z,13.57
2022-09-28T19:52:16.152Z,13.27
2022-09-28T19:54:54.373Z,14.68
2022-09-28T19:57:21.463Z,12.73
2022-09-28T19:59:52.376Z,16.10
2022-09-28T20:02:19.531Z,10.77
2022-09-28T20:04:46.227Z,10.80
2022-09-28T20:07:12.869Z,10.48
2022-09-28T20:09:39.494Z,13.18
2022-09-28T20:12:06.509Z,14.02
2022-09-28T20:14:38.031Z,15.55
2022-09-28T20:17:06.905Z,26.02
2022-09-28T20:19:33.606Z,23.60
2022-09-28T20:22:02.977Z,20.77
2022-09-28T20:24:31.269Z,19.77
2022-09-28T20:26:58.189Z,13.25
2022-09-28T20:29:24.921Z,12.77
2022-09-28T20:31:52.202Z,17.35
2022-09-28T20:34:19.110Z,14.70
2022-09-28T20:36:45.783Z,13.23
2022-09-28T20:39:12.944Z,11.73
2022-09-28T20:41:40.278Z,13.30
2022-09-28T20:44:07.264Z,21.83
2022-09-28T20:46:37.575Z,13.52
2022-09-28T20:49:05.257Z,13.40
2022-09-28T20:51:32.369Z,12.95
2022-09-28T20:53:59.449Z,22.55
2022-09-28T20:56:28.503Z,13.70
2022-09-28T20:58:55.804Z,15.95
2022-09-28T21:01:29.933Z,13.80
2022-09-28T21:03:59.013Z,15.90
2022-09-28T21:06:28.835Z,15.87
2022-09-28T21:11:24.267Z,16.23
2022-09-28T21:13:59.984Z,19.10
2022-09-28T21:16:28.712Z,22.95
2022-09-28T21:18:55.693Z,16.60
2022-09-28T21:21:23.917Z,17.58
2022-09-28T21:23:54.916Z,17.70
2022-09-28T21:26:26.666Z,14.68
2022-09-28T21:29:04.354Z,16.92
2022-09-28T21:31:36.858Z,14.75
2022-09-28T21:34:04.713Z,16.63
2022-09-28T21:36:31.973Z,12.30
2022-09-28T21:38:58.623Z,15.98
2022-09-28T21:41:25.375Z,15.52
2022-09-28T21:43:52.595Z,22.40
2022-09-28T21:46:19.378Z,16.23
2022-09-28T21:48:46.027Z,16.60
2022-09-28T21:51:15.452Z,14.50
2022-09-28T21:53:42.839Z,16.67
2022-09-28T21:56:12.182Z,16.60
2022-09-28T21:58:40.147Z,15.45
2022-09-28T22:01:13.284Z,17.83
2022-09-28T22:06:17.871Z,16.98
2022-09-28T22:08:45.940Z,17.00
2022-09-28T22:11:17.317Z,19.35
2022-09-28T22:13:46.498Z,21.40
2022-09-28T22:16:15.172Z,18.92
2022-09-28T22:18:42.199Z,19.48
2022-09-28T22:21:12.872Z,17.45
2022-09-28T22:23:40.366Z,19.38
2022-09-28T22:26:18.993Z,33.45
2022-09-28T22:28:51.811Z,20.27
2022-09-28T22:31:20.775Z,22.63
2022-09-28T22:33:47.921Z,20.52
2022-09-28T22:36:16.981Z,23.30
2022-09-28T22:38:44.443Z,22.23
2022-09-28T22:41:11.367Z,25.52
2022-09-28T22:43:38.180Z,31.63
2022-09-28T22:46:05.804Z,28.75
2022-09-28T22:48:32.953Z,28.73
2022-09-28T22:50:59.603Z,20.75
2022-09-28T22:53:26.766Z,22.98
2022-09-28T22:55:53.466Z,19.05
2022-09-28T22:58:20.303Z,20.42
2022-09-28T23:00:48.330Z,23.90
2022-09-28T23:03:14.971Z,23.80
2022-09-28T23:05:41.857Z,22.13
2022-09-28T23:08:08.528Z,20.48
2022-09-28T23:10:35.126Z,19.70
2022-09-28T23:13:01.741Z,17.85
2022-09-28T23:15:29.035Z,19.58
2022-09-28T23:17:55.732Z,17.17
2022-09-28T23:20:23.488Z,14.15
2022-09-28T23:22:50.986Z,15.70
2022-09-28T23:25:19.625Z,19.85
2022-09-28T23:27:51.199Z,15.20
2022-09-28T23:30:20.042Z,16.80
2022-09-28T23:32:46.677Z,16.40
2022-09-28T23:35:14.317Z,16.13
2022-09-28T23:37:40.927Z,15.05
2022-09-28T23:40:07.996Z,15.93
2022-09-28T23:42:35.508Z,15.38
2022-09-28T23:45:02.114Z,13.48
2022-09-28T23:47:28.694Z,13.32
2022-09-28T23:49:55.303Z,16.90
2022-09-28T23:52:21.913Z,18.38
2022-09-28T23:54:48.604Z,15.57
2022-09-28T23:57:15.439Z,18.77
2022-09-28T23:59:41.971Z,19.10
